CDG4876 ZGHA-ZSQD
Flight info
| Callsign | CDG4876 |
|---|---|
| Flight time | 1h 56m |
| Altitude | 31100 |
| Route | GUDRO W56 VADMO W4 WXI W59 SUNOK W103 WFG |
| Aircraft | B738/M-SDE2E3FGHIRWXY/LB1 |
Departure
| Time | 2026-04-23 13:21 |
|---|---|
| Airport | Changsha Huanghua International Airport (ZGHA) |
Arrival
| Time | 2026-04-23 15:18 |
|---|---|
| Airport | Qingdao Jiaodong International Airport (ZSQD) |
| Time | Latitude | Longitude | Altitude | Speed | Heading |
|---|---|---|---|---|---|
| 2026-04-23 12:48 | 28.19709 | 113.21509 | 227 ft | 0 kts | 279° |
| 2026-04-23 13:10 | 28.19708 | 113.21516 | 227 ft | 2 kts | 278° |
| 2026-04-23 13:11 | 28.19705 | 113.21533 | 227 ft | 2 kts | 281° |
| 2026-04-23 13:11 | 28.19703 | 113.21549 | 227 ft | 2 kts | 280° |
| 2026-04-23 13:11 | 28.19700 | 113.21566 | 227 ft | 2 kts | 280° |
| 2026-04-23 13:11 | 28.19697 | 113.21583 | 227 ft | 2 kts | 280° |
| 2026-04-23 13:12 | 28.19694 | 113.21600 | 227 ft | 2 kts | 280° |
| 2026-04-23 13:12 | 28.19692 | 113.21610 | 226 ft | 2 kts | 277° |
| 2026-04-23 13:12 | 28.19696 | 113.21627 | 227 ft | 2 kts | 236° |
| 2026-04-23 13:12 | 28.19706 | 113.21639 | 227 ft | 2 kts | 203° |
| 2026-04-23 13:13 | 28.19717 | 113.21641 | 227 ft | 0 kts | 179° |
| 2026-04-23 13:13 | 28.19724 | 113.21641 | 226 ft | 0 kts | 175° |
| 2026-04-23 13:13 | 28.19725 | 113.21641 | 226 ft | 0 kts | 175° |
| 2026-04-23 13:15 | 28.19721 | 113.21641 | 226 ft | 2 kts | 175° |
| 2026-04-23 13:15 | 28.19692 | 113.21643 | 226 ft | 6 kts | 177° |
| 2026-04-23 13:15 | 28.19635 | 113.21646 | 227 ft | 10 kts | 177° |
| 2026-04-23 13:15 | 28.19554 | 113.21651 | 227 ft | 11 kts | 177° |
| 2026-04-23 13:16 | 28.19475 | 113.21655 | 226 ft | 10 kts | 176° |
| 2026-04-23 13:16 | 28.19409 | 113.21672 | 227 ft | 9 kts | 129° |
| 2026-04-23 13:16 | 28.19392 | 113.21738 | 226 ft | 8 kts | 126° |
| 2026-04-23 13:16 | 28.19341 | 113.21762 | 227 ft | 8 kts | 175° |
| 2026-04-23 13:17 | 28.19272 | 113.21767 | 227 ft | 11 kts | 176° |
| 2026-04-23 13:17 | 28.19177 | 113.21773 | 227 ft | 15 kts | 176° |
| 2026-04-23 13:17 | 28.19056 | 113.21780 | 227 ft | 19 kts | 177° |
| 2026-04-23 13:17 | 28.18909 | 113.21789 | 227 ft | 22 kts | 177° |
| 2026-04-23 13:18 | 28.18742 | 113.21800 | 227 ft | 24 kts | 176° |
| 2026-04-23 13:18 | 28.18578 | 113.21809 | 227 ft | 23 kts | 176° |
| 2026-04-23 13:18 | 28.18421 | 113.21820 | 227 ft | 22 kts | 176° |
| 2026-04-23 13:18 | 28.18266 | 113.21829 | 227 ft | 22 kts | 176° |
| 2026-04-23 13:19 | 28.18106 | 113.21839 | 227 ft | 23 kts | 176° |
| 2026-04-23 13:19 | 28.17946 | 113.21849 | 227 ft | 22 kts | 177° |
| 2026-04-23 13:19 | 28.17809 | 113.21858 | 227 ft | 9 kts | 176° |
| 2026-04-23 13:19 | 28.17748 | 113.21881 | 227 ft | 9 kts | 131° |
| 2026-04-23 13:20 | 28.17742 | 113.21950 | 227 ft | 8 kts | 86° |
| 2026-04-23 13:20 | 28.17746 | 113.22014 | 227 ft | 7 kts | 76° |
| 2026-04-23 13:20 | 28.17786 | 113.22045 | 227 ft | 7 kts | 13° |
| 2026-04-23 13:20 | 28.17835 | 113.22044 | 227 ft | 8 kts | 355° |
| 2026-04-23 13:21 | 28.18020 | 113.22032 | 227 ft | 58 kts | 357° |
| 2026-04-23 13:21 | 28.18653 | 113.21994 | 227 ft | 120 kts | 356° |
| 2026-04-23 13:21 | 28.19665 | 113.21932 | 254 ft | 166 kts | 356° |
| 2026-04-23 13:21 | 28.20783 | 113.21867 | 912 ft | 161 kts | 357° |
| 2026-04-23 13:22 | 28.21912 | 113.21783 | 1516 ft | 165 kts | 356° |
| 2026-04-23 13:22 | 28.23040 | 113.21703 | 2143 ft | 160 kts | 357° |
| 2026-04-23 13:22 | 28.24156 | 113.21636 | 2551 ft | 163 kts | 357° |
| 2026-04-23 13:22 | 28.25279 | 113.21571 | 3013 ft | 162 kts | 358° |
| 2026-04-23 13:23 | 28.26408 | 113.21501 | 3464 ft | 165 kts | 357° |
| 2026-04-23 13:23 | 28.27596 | 113.21497 | 3808 ft | 177 kts | 8° |
| 2026-04-23 13:23 | 28.28753 | 113.22110 | 4105 ft | 196 kts | 43° |
| 2026-04-23 13:23 | 28.29576 | 113.23402 | 4493 ft | 210 kts | 56° |
| 2026-04-23 13:24 | 28.30362 | 113.24848 | 4895 ft | 217 kts | 54° |
| 2026-04-23 13:24 | 28.31188 | 113.26278 | 4913 ft | 220 kts | 53° |
| 2026-04-23 13:24 | 28.32043 | 113.27713 | 4904 ft | 216 kts | 52° |
| 2026-04-23 13:24 | 28.32883 | 113.29122 | 4900 ft | 217 kts | 53° |
| 2026-04-23 13:25 | 28.33742 | 113.30570 | 4928 ft | 228 kts | 53° |
| 2026-04-23 13:25 | 28.34679 | 113.32142 | 5233 ft | 246 kts | 53° |
| 2026-04-23 13:25 | 28.35641 | 113.33765 | 5718 ft | 257 kts | 53° |
| 2026-04-23 13:25 | 28.36655 | 113.35481 | 6286 ft | 264 kts | 53° |
| 2026-04-23 13:26 | 28.37677 | 113.37214 | 6944 ft | 268 kts | 53° |
| 2026-04-23 13:26 | 28.38719 | 113.38980 | 7603 ft | 272 kts | 53° |
| 2026-04-23 13:26 | 28.39776 | 113.40768 | 8268 ft | 276 kts | 52° |
| 2026-04-23 13:26 | 28.40863 | 113.42608 | 8948 ft | 281 kts | 52° |
| 2026-04-23 13:27 | 28.41950 | 113.44446 | 9639 ft | 283 kts | 51° |
| 2026-04-23 13:27 | 28.43164 | 113.46191 | 10256 ft | 286 kts | 40° |
| 2026-04-23 13:27 | 28.44811 | 113.47479 | 10617 ft | 294 kts | 18° |
| 2026-04-23 13:27 | 28.46853 | 113.47974 | 10981 ft | 304 kts | 1° |
| 2026-04-23 13:28 | 28.48999 | 113.48087 | 11343 ft | 319 kts | 360° |
| 2026-04-23 13:28 | 28.51285 | 113.48211 | 11697 ft | 334 kts | 0° |
| 2026-04-23 13:28 | 28.53648 | 113.48370 | 12079 ft | 348 kts | 0° |
| 2026-04-23 13:28 | 28.56074 | 113.48550 | 12684 ft | 354 kts | 0° |
| 2026-04-23 13:29 | 28.58574 | 113.48737 | 13317 ft | 359 kts | 0° |
| 2026-04-23 13:29 | 28.61090 | 113.48923 | 13952 ft | 364 kts | 360° |
| 2026-04-23 13:29 | 28.63610 | 113.49107 | 14688 ft | 367 kts | 359° |
| 2026-04-23 13:29 | 28.66184 | 113.49294 | 15344 ft | 372 kts | 359° |
| 2026-04-23 13:30 | 28.68786 | 113.49483 | 15992 ft | 376 kts | 359° |
| 2026-04-23 13:30 | 28.71373 | 113.49672 | 16691 ft | 379 kts | 358° |
| 2026-04-23 13:30 | 28.74037 | 113.49864 | 17307 ft | 384 kts | 358° |
| 2026-04-23 13:30 | 28.76697 | 113.50057 | 17955 ft | 387 kts | 358° |
| 2026-04-23 13:31 | 28.79398 | 113.50252 | 18577 ft | 391 kts | 358° |
| 2026-04-23 13:31 | 28.82127 | 113.50446 | 19187 ft | 395 kts | 357° |
| 2026-04-23 13:31 | 28.84889 | 113.50645 | 19827 ft | 398 kts | 357° |
| 2026-04-23 13:31 | 28.87650 | 113.50843 | 20457 ft | 401 kts | 357° |
| 2026-04-23 13:32 | 28.90488 | 113.51045 | 21020 ft | 406 kts | 357° |
| 2026-04-23 13:32 | 28.93359 | 113.51251 | 21616 ft | 409 kts | 357° |
| 2026-04-23 13:32 | 28.96201 | 113.51455 | 22178 ft | 412 kts | 356° |
| 2026-04-23 13:32 | 28.99111 | 113.51664 | 22705 ft | 417 kts | 356° |
| 2026-04-23 13:33 | 29.02002 | 113.51872 | 23297 ft | 418 kts | 356° |
| 2026-04-23 13:33 | 29.04954 | 113.52085 | 23789 ft | 422 kts | 356° |
| 2026-04-23 13:33 | 29.07887 | 113.52296 | 24204 ft | 428 kts | 356° |
| 2026-04-23 13:33 | 29.10876 | 113.52510 | 24713 ft | 431 kts | 355° |
| 2026-04-23 13:34 | 29.13883 | 113.52728 | 25174 ft | 435 kts | 355° |
| 2026-04-23 13:34 | 29.16921 | 113.52947 | 25536 ft | 441 kts | 355° |
| 2026-04-23 13:34 | 29.20022 | 113.53171 | 25951 ft | 446 kts | 355° |
| 2026-04-23 13:34 | 29.23129 | 113.53397 | 26431 ft | 449 kts | 355° |
| 2026-04-23 13:35 | 29.26262 | 113.53625 | 26810 ft | 454 kts | 355° |
| 2026-04-23 13:35 | 29.29421 | 113.53858 | 27207 ft | 458 kts | 355° |
| 2026-04-23 13:35 | 29.32608 | 113.54114 | 27831 ft | 457 kts | 354° |
| 2026-04-23 13:35 | 29.35735 | 113.54383 | 28544 ft | 452 kts | 354° |
| 2026-04-23 13:36 | 29.38873 | 113.54666 | 29073 ft | 453 kts | 354° |
| 2026-04-23 13:36 | 29.42005 | 113.54951 | 29553 ft | 453 kts | 354° |
| 2026-04-23 13:36 | 29.45191 | 113.55234 | 29875 ft | 457 kts | 353° |
| 2026-04-23 13:36 | 29.48321 | 113.55510 | 30356 ft | 456 kts | 353° |
| 2026-04-23 13:37 | 29.51509 | 113.55792 | 30932 ft | 453 kts | 353° |
| 2026-04-23 13:37 | 29.54639 | 113.56065 | 31123 ft | 456 kts | 353° |
| 2026-04-23 13:37 | 29.57825 | 113.56342 | 31130 ft | 456 kts | 353° |
| 2026-04-23 13:38 | 29.64158 | 113.56906 | 31134 ft | 453 kts | 353° |
| 2026-04-23 13:38 | 29.70436 | 113.57447 | 31135 ft | 451 kts | 353° |
| 2026-04-23 13:39 | 29.76731 | 113.57993 | 31140 ft | 454 kts | 353° |
| 2026-04-23 13:39 | 29.83034 | 113.58546 | 31140 ft | 450 kts | 353° |
| 2026-04-23 13:40 | 29.89315 | 113.59090 | 31138 ft | 453 kts | 354° |
| 2026-04-23 13:40 | 29.95613 | 113.60307 | 31140 ft | 468 kts | 5° |
| 2026-04-23 13:40 | 29.98758 | 113.61475 | 31142 ft | 479 kts | 10° |
| 2026-04-23 13:41 | 30.01829 | 113.62861 | 31150 ft | 479 kts | 13° |
| 2026-04-23 13:41 | 30.07984 | 113.65976 | 31144 ft | 480 kts | 15° |
| 2026-04-23 13:42 | 30.14046 | 113.69129 | 31142 ft | 482 kts | 15° |
| 2026-04-23 13:42 | 30.20178 | 113.72279 | 31146 ft | 480 kts | 15° |
| 2026-04-23 13:43 | 30.26293 | 113.75377 | 31147 ft | 477 kts | 15° |
| 2026-04-23 13:43 | 30.32381 | 113.78442 | 31145 ft | 476 kts | 15° |
| 2026-04-23 13:44 | 30.38458 | 113.81493 | 31144 ft | 478 kts | 14° |
| 2026-04-23 13:44 | 30.44578 | 113.84557 | 31153 ft | 475 kts | 15° |
| 2026-04-23 13:45 | 30.50656 | 113.87615 | 31147 ft | 476 kts | 15° |
| 2026-04-23 13:45 | 30.56777 | 113.90700 | 31156 ft | 478 kts | 15° |
| 2026-04-23 13:46 | 30.62877 | 113.93792 | 31153 ft | 476 kts | 15° |
| 2026-04-23 13:46 | 30.68933 | 113.96797 | 31147 ft | 473 kts | 14° |
| 2026-04-23 13:47 | 30.74967 | 113.99889 | 31150 ft | 477 kts | 17° |
| 2026-04-23 13:47 | 30.80972 | 114.03251 | 31151 ft | 478 kts | 17° |
| 2026-04-23 13:48 | 30.86964 | 114.06565 | 31149 ft | 475 kts | 17° |
| 2026-04-23 13:48 | 30.93020 | 114.09862 | 31152 ft | 476 kts | 17° |
| 2026-04-23 13:49 | 30.98977 | 114.13088 | 31150 ft | 475 kts | 17° |
| 2026-04-23 13:49 | 31.05016 | 114.16363 | 31155 ft | 475 kts | 17° |
| 2026-04-23 13:50 | 31.10994 | 114.19617 | 31152 ft | 473 kts | 17° |
| 2026-04-23 13:50 | 31.16975 | 114.22877 | 31148 ft | 474 kts | 17° |
| 2026-04-23 13:51 | 31.22956 | 114.26134 | 31144 ft | 473 kts | 17° |
| 2026-04-23 13:51 | 31.28904 | 114.29384 | 31145 ft | 469 kts | 17° |
| 2026-04-23 13:52 | 31.34912 | 114.32359 | 31145 ft | 462 kts | 9° |
| 2026-04-23 13:52 | 31.41154 | 114.33595 | 31153 ft | 446 kts | 355° |
| 2026-04-23 13:53 | 31.47305 | 114.33813 | 31149 ft | 443 kts | 352° |
| 2026-04-23 13:53 | 31.53465 | 114.33856 | 31143 ft | 442 kts | 352° |
| 2026-04-23 13:54 | 31.59618 | 114.33936 | 31147 ft | 440 kts | 353° |
| 2026-04-23 13:54 | 31.65800 | 114.34070 | 31147 ft | 442 kts | 353° |
| 2026-04-23 13:55 | 31.71936 | 114.34237 | 31150 ft | 440 kts | 353° |
| 2026-04-23 13:55 | 31.78130 | 114.34416 | 31148 ft | 441 kts | 354° |
| 2026-04-23 13:56 | 31.84252 | 114.34604 | 31154 ft | 439 kts | 354° |
| 2026-04-23 13:56 | 31.90397 | 114.34790 | 31148 ft | 441 kts | 354° |
| 2026-04-23 13:57 | 31.96515 | 114.34975 | 31153 ft | 440 kts | 354° |
| 2026-04-23 13:57 | 32.02684 | 114.35163 | 31150 ft | 440 kts | 354° |
| 2026-04-23 13:58 | 32.08800 | 114.35349 | 31149 ft | 439 kts | 354° |
| 2026-04-23 13:58 | 32.14912 | 114.35533 | 31146 ft | 439 kts | 354° |
| 2026-04-23 13:59 | 32.21034 | 114.35718 | 31153 ft | 440 kts | 354° |
| 2026-04-23 13:59 | 32.27163 | 114.35921 | 31149 ft | 440 kts | 355° |
| 2026-04-23 14:00 | 32.32267 | 114.36298 | 31155 ft | 443 kts | 358° |
| 2026-04-23 14:00 | 32.39418 | 114.37006 | 31151 ft | 442 kts | 358° |
| 2026-04-23 14:01 | 32.45526 | 114.37617 | 31148 ft | 440 kts | 358° |
| 2026-04-23 14:01 | 32.51688 | 114.38210 | 31151 ft | 440 kts | 358° |
| 2026-04-23 14:02 | 32.57829 | 114.38787 | 31152 ft | 440 kts | 358° |
| 2026-04-23 14:02 | 32.63931 | 114.39349 | 31146 ft | 441 kts | 358° |
| 2026-04-23 14:03 | 32.70048 | 114.39915 | 31145 ft | 440 kts | 358° |
| 2026-04-23 14:03 | 32.76174 | 114.40485 | 31137 ft | 440 kts | 358° |
| 2026-04-23 14:04 | 32.82325 | 114.41061 | 31139 ft | 441 kts | 358° |
| 2026-04-23 14:04 | 32.88416 | 114.41631 | 31134 ft | 440 kts | 358° |
| 2026-04-23 14:05 | 32.94572 | 114.42205 | 31138 ft | 441 kts | 359° |
| 2026-04-23 14:05 | 33.00663 | 114.42776 | 31136 ft | 440 kts | 358° |
| 2026-04-23 14:06 | 33.06805 | 114.43352 | 31139 ft | 441 kts | 358° |
| 2026-04-23 14:06 | 33.12926 | 114.43927 | 31136 ft | 439 kts | 359° |
| 2026-04-23 14:07 | 33.19004 | 114.44497 | 31134 ft | 440 kts | 359° |
| 2026-04-23 14:07 | 33.28155 | 114.45358 | 31137 ft | 439 kts | 359° |
| 2026-04-23 14:08 | 33.34232 | 114.45931 | 31140 ft | 439 kts | 359° |
| 2026-04-23 14:08 | 33.40326 | 114.46503 | 31136 ft | 437 kts | 359° |
| 2026-04-23 14:09 | 33.46381 | 114.47073 | 31132 ft | 438 kts | 359° |
| 2026-04-23 14:09 | 33.52477 | 114.47646 | 31133 ft | 438 kts | 359° |
| 2026-04-23 14:10 | 33.58543 | 114.48221 | 31134 ft | 437 kts | 359° |
| 2026-04-23 14:10 | 33.64597 | 114.48792 | 31131 ft | 437 kts | 359° |
| 2026-04-23 14:11 | 33.70696 | 114.49365 | 31132 ft | 436 kts | 359° |
| 2026-04-23 14:11 | 33.76742 | 114.49930 | 31135 ft | 436 kts | 359° |
| 2026-04-23 14:12 | 33.82769 | 114.50493 | 31125 ft | 436 kts | 359° |
| 2026-04-23 14:12 | 33.88833 | 114.51062 | 31132 ft | 436 kts | 359° |
| 2026-04-23 14:13 | 33.94889 | 114.51632 | 31129 ft | 436 kts | 359° |
| 2026-04-23 14:13 | 34.00943 | 114.52204 | 31130 ft | 435 kts | 359° |
| 2026-04-23 14:14 | 34.06974 | 114.52775 | 31130 ft | 435 kts | 360° |
| 2026-04-23 14:14 | 34.13045 | 114.53351 | 31126 ft | 434 kts | 360° |
| 2026-04-23 14:15 | 34.19024 | 114.53918 | 31134 ft | 434 kts | 0° |
| 2026-04-23 14:15 | 34.25044 | 114.54489 | 31120 ft | 433 kts | 0° |
| 2026-04-23 14:16 | 34.31064 | 114.55062 | 31130 ft | 434 kts | 0° |
| 2026-04-23 14:16 | 34.37094 | 114.55636 | 31134 ft | 432 kts | 0° |
| 2026-04-23 14:17 | 34.43125 | 114.56210 | 31119 ft | 431 kts | 0° |
| 2026-04-23 14:17 | 34.49102 | 114.56780 | 31131 ft | 433 kts | 0° |
| 2026-04-23 14:18 | 34.55123 | 114.57351 | 31121 ft | 432 kts | 0° |
| 2026-04-23 14:18 | 34.61093 | 114.57916 | 31117 ft | 431 kts | 0° |
| 2026-04-23 14:19 | 34.67091 | 114.58485 | 31113 ft | 431 kts | 1° |
| 2026-04-23 14:19 | 34.73070 | 114.59052 | 31125 ft | 431 kts | 1° |
| 2026-04-23 14:20 | 34.79073 | 114.59624 | 31118 ft | 430 kts | 1° |
| 2026-04-23 14:20 | 34.85023 | 114.60192 | 31121 ft | 431 kts | 1° |
| 2026-04-23 14:21 | 34.90985 | 114.60763 | 31107 ft | 429 kts | 1° |
| 2026-04-23 14:21 | 34.96970 | 114.61336 | 31109 ft | 431 kts | 1° |
| 2026-04-23 14:22 | 35.02950 | 114.61909 | 31114 ft | 430 kts | 1° |
| 2026-04-23 14:22 | 35.08881 | 114.62479 | 31107 ft | 429 kts | 1° |
| 2026-04-23 14:23 | 35.14860 | 114.63054 | 31103 ft | 429 kts | 1° |
| 2026-04-23 14:23 | 35.20804 | 114.63627 | 31099 ft | 428 kts | 1° |
| 2026-04-23 14:24 | 35.26782 | 114.64202 | 31099 ft | 429 kts | 2° |
| 2026-04-23 14:24 | 35.32705 | 114.64774 | 31097 ft | 429 kts | 2° |
| 2026-04-23 14:25 | 35.38704 | 114.65355 | 31097 ft | 430 kts | 2° |
| 2026-04-23 14:25 | 35.44669 | 114.65932 | 31094 ft | 429 kts | 2° |
| 2026-04-23 14:26 | 35.50606 | 114.66508 | 31095 ft | 428 kts | 2° |
| 2026-04-23 14:26 | 35.56539 | 114.67084 | 31088 ft | 428 kts | 2° |
| 2026-04-23 14:27 | 35.62477 | 114.67661 | 31076 ft | 428 kts | 2° |
| 2026-04-23 14:27 | 35.68424 | 114.68240 | 31076 ft | 428 kts | 2° |
| 2026-04-23 14:28 | 35.74383 | 114.68822 | 31067 ft | 428 kts | 2° |
| 2026-04-23 14:28 | 35.80331 | 114.69402 | 31070 ft | 428 kts | 2° |
| 2026-04-23 14:29 | 35.86269 | 114.69983 | 31068 ft | 428 kts | 2° |
| 2026-04-23 14:29 | 35.92196 | 114.70565 | 31066 ft | 427 kts | 3° |
| 2026-04-23 14:30 | 35.98130 | 114.71147 | 31061 ft | 427 kts | 3° |
| 2026-04-23 14:30 | 36.04055 | 114.71730 | 31060 ft | 427 kts | 3° |
| 2026-04-23 14:31 | 36.09996 | 114.72315 | 31061 ft | 427 kts | 3° |
| 2026-04-23 14:31 | 36.15913 | 114.72895 | 31062 ft | 426 kts | 3° |
| 2026-04-23 14:32 | 36.21795 | 114.73830 | 31054 ft | 427 kts | 12° |
| 2026-04-23 14:32 | 36.24627 | 114.75063 | 31055 ft | 430 kts | 24° |
| 2026-04-23 14:32 | 36.27220 | 114.76942 | 31055 ft | 432 kts | 34° |
| 2026-04-23 14:33 | 36.31647 | 114.82001 | 31051 ft | 437 kts | 48° |
| 2026-04-23 14:33 | 36.35083 | 114.88280 | 31050 ft | 440 kts | 60° |
| 2026-04-23 14:34 | 36.37289 | 114.95342 | 31050 ft | 441 kts | 71° |
| 2026-04-23 14:34 | 36.38927 | 115.02721 | 31053 ft | 443 kts | 73° |
| 2026-04-23 14:35 | 36.40454 | 115.10117 | 31053 ft | 441 kts | 73° |
| 2026-04-23 14:35 | 36.41996 | 115.17526 | 31056 ft | 442 kts | 73° |
| 2026-04-23 14:36 | 36.43850 | 115.24724 | 31055 ft | 440 kts | 66° |
| 2026-04-23 14:36 | 36.46282 | 115.31745 | 31058 ft | 439 kts | 63° |
| 2026-04-23 14:37 | 36.48820 | 115.38643 | 31054 ft | 438 kts | 63° |
| 2026-04-23 14:37 | 36.51322 | 115.45496 | 31056 ft | 438 kts | 63° |
| 2026-04-23 14:38 | 36.53814 | 115.52430 | 31055 ft | 438 kts | 63° |
| 2026-04-23 14:38 | 36.56293 | 115.59403 | 31060 ft | 438 kts | 63° |
| 2026-04-23 14:39 | 36.58743 | 115.66339 | 31061 ft | 437 kts | 64° |
| 2026-04-23 14:39 | 36.61185 | 115.73268 | 31073 ft | 438 kts | 64° |
| 2026-04-23 14:40 | 36.63631 | 115.80232 | 31064 ft | 436 kts | 64° |
| 2026-04-23 14:40 | 36.66064 | 115.87174 | 31056 ft | 435 kts | 64° |
| 2026-04-23 14:41 | 36.68486 | 115.94102 | 31059 ft | 435 kts | 64° |
| 2026-04-23 14:41 | 36.70886 | 116.00984 | 31072 ft | 436 kts | 64° |
| 2026-04-23 14:42 | 36.73293 | 116.07896 | 31053 ft | 434 kts | 64° |
| 2026-04-23 14:42 | 36.75689 | 116.14796 | 31058 ft | 435 kts | 64° |
| 2026-04-23 14:43 | 36.78099 | 116.21753 | 31064 ft | 436 kts | 64° |
| 2026-04-23 14:43 | 36.80018 | 116.28944 | 31052 ft | 437 kts | 76° |
| 2026-04-23 14:44 | 36.80733 | 116.36430 | 31067 ft | 441 kts | 84° |
| 2026-04-23 14:44 | 36.80994 | 116.44089 | 31068 ft | 442 kts | 85° |
| 2026-04-23 14:45 | 36.81182 | 116.51744 | 31083 ft | 445 kts | 85° |
| 2026-04-23 14:45 | 36.81385 | 116.59434 | 31082 ft | 443 kts | 85° |
| 2026-04-23 14:46 | 36.81610 | 116.67165 | 31076 ft | 442 kts | 86° |
| 2026-04-23 14:46 | 36.81841 | 116.74792 | 31077 ft | 443 kts | 85° |
| 2026-04-23 14:47 | 36.82076 | 116.82476 | 31074 ft | 443 kts | 85° |
| 2026-04-23 14:47 | 36.82309 | 116.90160 | 31076 ft | 444 kts | 85° |
| 2026-04-23 14:48 | 36.82538 | 116.97882 | 31082 ft | 444 kts | 85° |
| 2026-04-23 14:48 | 36.82760 | 117.05533 | 31066 ft | 444 kts | 85° |
| 2026-04-23 14:49 | 36.82980 | 117.13242 | 31079 ft | 447 kts | 85° |
| 2026-04-23 14:49 | 36.83149 | 117.20979 | 31069 ft | 445 kts | 88° |
| 2026-04-23 14:50 | 36.82732 | 117.28727 | 31070 ft | 447 kts | 94° |
| 2026-04-23 14:50 | 36.81970 | 117.36417 | 31076 ft | 449 kts | 95° |
| 2026-04-23 14:51 | 36.81163 | 117.44120 | 31079 ft | 449 kts | 95° |
| 2026-04-23 14:51 | 36.80378 | 117.51803 | 31072 ft | 447 kts | 95° |
| 2026-04-23 14:52 | 36.79607 | 117.59540 | 31078 ft | 449 kts | 95° |
| 2026-04-23 14:52 | 36.78842 | 117.67297 | 31075 ft | 449 kts | 95° |
| 2026-04-23 14:53 | 36.78083 | 117.75037 | 31090 ft | 450 kts | 95° |
| 2026-04-23 14:53 | 36.77322 | 117.82753 | 31078 ft | 448 kts | 95° |
| 2026-04-23 14:54 | 36.76550 | 117.90537 | 31072 ft | 450 kts | 95° |
| 2026-04-23 14:54 | 36.75780 | 117.98248 | 31077 ft | 451 kts | 95° |
| 2026-04-23 14:55 | 36.74999 | 118.06023 | 31088 ft | 450 kts | 95° |
| 2026-04-23 14:55 | 36.74210 | 118.13813 | 31081 ft | 450 kts | 95° |
| 2026-04-23 14:56 | 36.73425 | 118.21520 | 31083 ft | 450 kts | 95° |
| 2026-04-23 14:56 | 36.72668 | 118.29279 | 31093 ft | 453 kts | 95° |
| 2026-04-23 14:57 | 36.71945 | 118.37054 | 31079 ft | 450 kts | 94° |
| 2026-04-23 14:57 | 36.71226 | 118.44779 | 30775 ft | 446 kts | 95° |
| 2026-04-23 14:58 | 36.70865 | 118.48609 | 30230 ft | 444 kts | 95° |
| 2026-04-23 14:58 | 36.70509 | 118.52370 | 29622 ft | 442 kts | 95° |
| 2026-04-23 14:58 | 36.70145 | 118.56179 | 29067 ft | 438 kts | 94° |
| 2026-04-23 14:58 | 36.69788 | 118.59902 | 28496 ft | 435 kts | 94° |
| 2026-04-23 14:59 | 36.69429 | 118.63636 | 27916 ft | 432 kts | 94° |
| 2026-04-23 14:59 | 36.69073 | 118.67313 | 27345 ft | 429 kts | 95° |
| 2026-04-23 14:59 | 36.68716 | 118.70992 | 26774 ft | 426 kts | 95° |
| 2026-04-23 14:59 | 36.68362 | 118.74627 | 26184 ft | 424 kts | 95° |
| 2026-04-23 15:00 | 36.68010 | 118.78233 | 25607 ft | 421 kts | 95° |
| 2026-04-23 15:00 | 36.67659 | 118.81816 | 25029 ft | 418 kts | 95° |
| 2026-04-23 15:00 | 36.67304 | 118.85436 | 24434 ft | 415 kts | 95° |
| 2026-04-23 15:00 | 36.66945 | 118.89082 | 23856 ft | 411 kts | 95° |
| 2026-04-23 15:01 | 36.66598 | 118.92584 | 23295 ft | 408 kts | 95° |
| 2026-04-23 15:01 | 36.66248 | 118.96107 | 22730 ft | 405 kts | 95° |
| 2026-04-23 15:01 | 36.65904 | 118.99567 | 22165 ft | 403 kts | 95° |
| 2026-04-23 15:01 | 36.65563 | 119.02987 | 21601 ft | 400 kts | 95° |
| 2026-04-23 15:02 | 36.65222 | 119.06406 | 21039 ft | 397 kts | 95° |
| 2026-04-23 15:02 | 36.64997 | 119.09810 | 20478 ft | 393 kts | 90° |
| 2026-04-23 15:02 | 36.65135 | 119.13207 | 19914 ft | 387 kts | 80° |
| 2026-04-23 15:02 | 36.65676 | 119.16422 | 19363 ft | 383 kts | 73° |
| 2026-04-23 15:03 | 36.66411 | 119.19597 | 18805 ft | 379 kts | 71° |
| 2026-04-23 15:03 | 36.67220 | 119.22702 | 18256 ft | 375 kts | 70° |
| 2026-04-23 15:03 | 36.68057 | 119.25796 | 17702 ft | 372 kts | 70° |
| 2026-04-23 15:03 | 36.68865 | 119.28812 | 17157 ft | 369 kts | 70° |
| 2026-04-23 15:04 | 36.69667 | 119.31870 | 16607 ft | 366 kts | 70° |
| 2026-04-23 15:04 | 36.70433 | 119.34853 | 16063 ft | 363 kts | 70° |
| 2026-04-23 15:04 | 36.71191 | 119.37812 | 15531 ft | 360 kts | 70° |
| 2026-04-23 15:04 | 36.71962 | 119.40784 | 14992 ft | 357 kts | 70° |
| 2026-04-23 15:05 | 36.72722 | 119.43699 | 14460 ft | 354 kts | 70° |
| 2026-04-23 15:05 | 36.73473 | 119.46588 | 13926 ft | 352 kts | 70° |
| 2026-04-23 15:05 | 36.74231 | 119.49506 | 13386 ft | 350 kts | 70° |
| 2026-04-23 15:05 | 36.74967 | 119.52350 | 12866 ft | 347 kts | 70° |
| 2026-04-23 15:06 | 36.75705 | 119.55207 | 12469 ft | 340 kts | 70° |
| 2026-04-23 15:06 | 36.76405 | 119.57931 | 12302 ft | 327 kts | 70° |
| 2026-04-23 15:06 | 36.77087 | 119.60590 | 12183 ft | 314 kts | 70° |
| 2026-04-23 15:06 | 36.77737 | 119.63120 | 11955 ft | 305 kts | 69° |
| 2026-04-23 15:07 | 36.78386 | 119.65640 | 11544 ft | 303 kts | 70° |
| 2026-04-23 15:07 | 36.79026 | 119.68129 | 11265 ft | 296 kts | 70° |
| 2026-04-23 15:07 | 36.79641 | 119.70524 | 11011 ft | 290 kts | 70° |
| 2026-04-23 15:07 | 36.80250 | 119.72900 | 10654 ft | 287 kts | 70° |
| 2026-04-23 15:08 | 36.80855 | 119.75258 | 10299 ft | 285 kts | 70° |
| 2026-04-23 15:08 | 36.81457 | 119.77611 | 9946 ft | 283 kts | 70° |
| 2026-04-23 15:08 | 36.82045 | 119.79911 | 9747 ft | 274 kts | 70° |
| 2026-04-23 15:09 | 36.82991 | 119.84534 | 8916 ft | 278 kts | 86° |
| 2026-04-23 15:09 | 36.82647 | 119.86891 | 8519 ft | 281 kts | 114° |
| 2026-04-23 15:09 | 36.81495 | 119.88825 | 8191 ft | 280 kts | 138° |
| 2026-04-23 15:09 | 36.79888 | 119.90221 | 7811 ft | 280 kts | 153° |
| 2026-04-23 15:10 | 36.78109 | 119.91133 | 7480 ft | 277 kts | 162° |
| 2026-04-23 15:10 | 36.76302 | 119.91827 | 7294 ft | 268 kts | 165° |
| 2026-04-23 15:10 | 36.74526 | 119.92475 | 7132 ft | 260 kts | 164° |
| 2026-04-23 15:10 | 36.72830 | 119.93121 | 6956 ft | 253 kts | 163° |
| 2026-04-23 15:11 | 36.71149 | 119.93780 | 6664 ft | 252 kts | 163° |
| 2026-04-23 15:11 | 36.69461 | 119.94449 | 6165 ft | 260 kts | 162° |
| 2026-04-23 15:11 | 36.67748 | 119.95128 | 5913 ft | 254 kts | 163° |
| 2026-04-23 15:11 | 36.66086 | 119.95785 | 5663 ft | 248 kts | 163° |
| 2026-04-23 15:12 | 36.64454 | 119.96429 | 5415 ft | 242 kts | 164° |
| 2026-04-23 15:12 | 36.62859 | 119.97057 | 5161 ft | 236 kts | 164° |
| 2026-04-23 15:12 | 36.61322 | 119.97663 | 4912 ft | 231 kts | 164° |
| 2026-04-23 15:12 | 36.59811 | 119.98258 | 4796 ft | 220 kts | 163° |
| 2026-04-23 15:13 | 36.58361 | 119.98830 | 4531 ft | 218 kts | 163° |
| 2026-04-23 15:13 | 36.56904 | 119.99402 | 4203 ft | 219 kts | 164° |
| 2026-04-23 15:13 | 36.55455 | 119.99972 | 3894 ft | 218 kts | 164° |
| 2026-04-23 15:13 | 36.54010 | 120.00540 | 3583 ft | 218 kts | 163° |
| 2026-04-23 15:14 | 36.52590 | 120.01100 | 3281 ft | 210 kts | 164° |
| 2026-04-23 15:14 | 36.51239 | 120.01633 | 3001 ft | 195 kts | 164° |
| 2026-04-23 15:14 | 36.49981 | 120.02127 | 2724 ft | 182 kts | 165° |
| 2026-04-23 15:14 | 36.48826 | 120.02580 | 2486 ft | 171 kts | 165° |
| 2026-04-23 15:15 | 36.47736 | 120.03007 | 2280 ft | 156 kts | 165° |
| 2026-04-23 15:15 | 36.46726 | 120.03404 | 2027 ft | 148 kts | 165° |
| 2026-04-23 15:15 | 36.45748 | 120.03787 | 1848 ft | 146 kts | 166° |
| 2026-04-23 15:15 | 36.44784 | 120.04163 | 1641 ft | 145 kts | 165° |
| 2026-04-23 15:16 | 36.43832 | 120.04536 | 1446 ft | 144 kts | 165° |
| 2026-04-23 15:16 | 36.42876 | 120.04912 | 1250 ft | 143 kts | 164° |
| 2026-04-23 15:16 | 36.41922 | 120.05286 | 1055 ft | 142 kts | 164° |
| 2026-04-23 15:16 | 36.40982 | 120.05653 | 856 ft | 142 kts | 164° |
| 2026-04-23 15:17 | 36.40038 | 120.06015 | 649 ft | 141 kts | 163° |
| 2026-04-23 15:17 | 36.39094 | 120.06395 | 449 ft | 141 kts | 163° |
| 2026-04-23 15:17 | 36.38157 | 120.06760 | 279 ft | 141 kts | 163° |
| 2026-04-23 15:17 | 36.37223 | 120.07125 | 93 ft | 141 kts | 162° |
| 2026-04-23 15:18 | 36.36347 | 120.07465 | 31 ft | 104 kts | 161° |
| 2026-04-23 15:18 | 36.35886 | 120.07645 | 37 ft | 47 kts | 162° |
| 2026-04-23 15:18 | 36.35701 | 120.07718 | 40 ft | 19 kts | 160° |
| 2026-04-23 15:18 | 36.35590 | 120.07805 | 43 ft | 17 kts | 139° |
| 2026-04-23 15:19 | 36.35513 | 120.07895 | 44 ft | 11 kts | 136° |
| 2026-04-23 15:19 | 36.35492 | 120.07976 | 44 ft | 10 kts | 62° |
| 2026-04-23 15:19 | 36.35525 | 120.08058 | 44 ft | 10 kts | 71° |
| 2026-04-23 15:19 | 36.35549 | 120.08144 | 44 ft | 10 kts | 62° |
| 2026-04-23 15:20 | 36.35613 | 120.08154 | 44 ft | 10 kts | 342° |
| 2026-04-23 15:20 | 36.35683 | 120.08126 | 44 ft | 11 kts | 342° |
| 2026-04-23 15:20 | 36.35777 | 120.08089 | 42 ft | 16 kts | 342° |
| 2026-04-23 15:20 | 36.35894 | 120.08042 | 40 ft | 18 kts | 343° |
| 2026-04-23 15:21 | 36.36023 | 120.07995 | 37 ft | 20 kts | 343° |
| 2026-04-23 15:21 | 36.36161 | 120.07941 | 35 ft | 21 kts | 342° |
| 2026-04-23 15:21 | 36.36306 | 120.07883 | 32 ft | 22 kts | 342° |
| 2026-04-23 15:21 | 36.36418 | 120.07839 | 29 ft | 13 kts | 342° |
| 2026-04-23 15:22 | 36.36487 | 120.07832 | 28 ft | 10 kts | 33° |
| 2026-04-23 15:22 | 36.36518 | 120.07912 | 28 ft | 10 kts | 72° |
| 2026-04-23 15:22 | 36.36544 | 120.08014 | 28 ft | 13 kts | 72° |
| 2026-04-23 15:22 | 36.36555 | 120.08123 | 30 ft | 12 kts | 101° |
| 2026-04-23 15:23 | 36.36538 | 120.08225 | 30 ft | 11 kts | 102° |
| 2026-04-23 15:23 | 36.36513 | 120.08305 | 31 ft | 8 kts | 142° |
| 2026-04-23 15:23 | 36.36460 | 120.08330 | 32 ft | 7 kts | 162° |
| 2026-04-23 15:23 | 36.36416 | 120.08348 | 33 ft | 6 kts | 158° |
| 2026-04-23 15:24 | 36.36387 | 120.08391 | 33 ft | 4 kts | 117° |
| 2026-04-23 15:24 | 36.36367 | 120.08409 | 34 ft | 3 kts | 176° |
| 2026-04-23 15:24 | 36.36352 | 120.08408 | 34 ft | 1 kts | 191° |
| 2026-04-23 15:24 | 36.36339 | 120.08405 | 34 ft | 1 kts | 191° |
| 2026-04-23 15:25 | 36.36332 | 120.08403 | 34 ft | 0 kts | 191° |
| 2026-04-23 15:25 | 36.36331 | 120.08402 | 34 ft | 0 kts | 191° |